Itasca, Texas
Current Conditions -  °F | °C
As of 11:55 PM on Thursday 27 Nov 2014 (Local Time) from KINJ Reporting Station
Haze Haze  
Wind Chill: 42°   Ceiling: Unl
Heat Index: 45°   Visibility: 5mi
Dew Point: 28°   Wind: 5mph
Humidity: 52%   Direction: 140°SE
Pressure: 30.36"   Gusts: NA
Location:  32.16°N, 97.15°W
Report Text: KINJ 280555Z AUTO 14004KT 5SM HZ CLR 07/M02 A3036 RMK AO2 T00701024 10117 20070 401560013
Loading
Personal Weather Stations






























Interactive Weather Map New forecast layout! Learn more

10-Day Weather Forecast

Advertisements
Track Severe Weather on mobile